Time;durP1;ratioP1;P1;durP2;ratioP2;P2;SDS_P1;SDS_P2;PMS_P1;PMS_P2;Temp;Humidity;BMP_temperature;BMP_pressure;BME280_temperature;BME280_humidity;BME280_pressure;Samples;Min_cycle;Max_cycle;Signal;HPM_P1;HPM_P2
2023/09/06 00:02:11;;;;;;;11.70;10.60;;;21.00;99.90;;;;;;5094841;28;20474;-86
2023/09/06 00:04:42;;;;;;;12.50;11.40;;;21.00;99.90;;;;;;5093968;28;20935;-86
2023/09/06 00:07:09;;;;;;;10.20;9.30;;;20.90;99.90;;;;;;5086031;28;20474;-86
2023/09/06 00:09:36;;;;;;;9.47;8.53;;;20.90;99.90;;;;;;5093557;28;20465;-86
2023/09/06 00:12:11;;;;;;;10.10;8.77;;;20.90;99.90;;;;;;5094711;28;20962;-85
2023/09/06 00:14:39;;;;;;;8.00;7.40;;;20.90;99.90;;;;;;5100344;28;20472;-84
2023/09/06 00:17:09;;;;;;;8.30;7.60;;;20.80;99.90;;;;;;5094346;28;20469;-86
2023/09/06 00:19:37;;;;;;;8.47;7.67;;;20.80;99.90;;;;;;5093175;28;20533;-85
2023/09/06 00:22:06;;;;;;;9.07;8.23;;;20.80;99.90;;;;;;5091078;28;20489;-85
2023/09/06 00:24:33;;;;;;;8.67;7.97;;;20.80;99.90;;;;;;5093304;28;20474;-85
2023/09/06 00:27:03;;;;;;;8.00;7.30;;;20.70;99.90;;;;;;5095029;28;20522;-85
2023/09/06 00:29:42;;;;;;;8.07;7.47;;;20.70;99.90;;;;;;5094329;28;20465;-86
2023/09/06 00:32:10;;;;;;;8.40;7.60;;;20.70;99.90;;;;;;5094101;28;20469;-85
2023/09/06 00:34:42;;;;;;;7.40;6.80;;;20.70;99.90;;;;;;5084867;28;20568;-85
2023/09/06 00:37:10;;;;;;;7.43;6.73;;;20.70;99.90;;;;;;5108036;28;20508;-86
2023/09/06 00:39:40;;;;;;;7.23;6.63;;;20.60;99.90;;;;;;5093478;28;20469;-85
2023/09/06 00:42:09;;;;;;;7.63;6.93;;;20.70;99.90;;;;;;5093994;28;20947;-85
2023/09/06 00:44:36;;;;;;;8.73;8.03;;;20.60;99.90;;;;;;5084222;28;20469;-85
2023/09/06 00:47:06;;;;;;;9.60;8.67;;;20.60;99.90;;;;;;5094089;28;20971;-85
2023/09/06 00:49:36;;;;;;;8.30;7.60;;;20.60;99.90;;;;;;5093460;28;20955;-85
2023/09/06 00:52:05;;;;;;;7.20;6.57;;;20.60;99.90;;;;;;5093800;28;20466;-85
2023/09/06 00:54:32;;;;;;;8.70;8.00;;;20.60;99.90;;;;;;5093657;28;20541;-86
2023/09/06 00:57:32;;;;;;;9.00;8.10;;;20.50;99.90;;;;;;5093432;28;20457;-84
2023/09/06 01:00:00;;;;;;;8.37;7.33;;;20.50;99.90;;;;;;5087863;28;20939;-83
2023/09/06 01:02:40;;;;;;;8.30;7.50;;;20.50;99.90;;;;;;5093714;28;20969;-83
2023/09/06 01:05:07;;;;;;;7.70;7.00;;;20.50;99.90;;;;;;5092890;28;20480;-84
2023/09/06 01:07:52;;;;;;;7.60;6.97;;;20.50;99.90;;;;;;5093336;28;20514;-84
2023/09/06 01:10:22;;;;;;;6.90;6.20;;;20.50;99.90;;;;;;5094276;28;20542;-84
2023/09/06 01:12:49;;;;;;;7.70;7.00;;;20.40;99.90;;;;;;5092589;28;20497;-86
2023/09/06 01:15:16;;;;;;;7.07;6.47;;;20.40;99.90;;;;;;5093221;28;20538;-85
2023/09/06 01:17:44;;;;;;;7.30;6.60;;;20.40;99.90;;;;;;5084124;28;20783;-85
2023/09/06 01:20:18;;;;;;;7.07;6.47;;;20.40;99.90;;;;;;5106487;28;20476;-84
2023/09/06 01:22:54;;;;;;;6.67;6.07;;;20.40;99.90;;;;;;5092680;28;20552;-85
2023/09/06 01:25:23;;;;;;;6.37;5.87;;;20.40;99.90;;;;;;5093259;28;20618;-84
2023/09/06 01:27:53;;;;;;;7.63;6.93;;;20.40;99.90;;;;;;5092884;28;20523;-84
2023/09/06 01:30:20;;;;;;;7.00;6.50;;;20.40;99.90;;;;;;5093615;28;20528;-86
2023/09/06 01:32:47;;;;;;;6.50;6.00;;;20.40;99.90;;;;;;5092170;28;20476;-86
2023/09/06 01:35:19;;;;;;;7.23;6.60;;;20.30;99.90;;;;;;5099705;28;20813;-86
2023/09/06 01:37:50;;;;;;;6.40;5.90;;;20.30;99.90;;;;;;5093315;28;20548;-85
2023/09/06 01:40:19;;;;;;;7.87;7.13;;;20.30;99.90;;;;;;5093372;28;20470;-85
2023/09/06 01:42:49;;;;;;;7.07;6.50;;;20.30;99.90;;;;;;5092919;28;20834;-85
2023/09/06 01:45:21;;;;;;;8.60;7.80;;;20.30;99.90;;;;;;5093349;28;20865;-85
2023/09/06 01:47:48;;;;;;;7.50;6.80;;;20.20;99.90;;;;;;5092696;28;20504;-85
2023/09/06 01:50:19;;;;;;;7.97;7.27;;;20.20;99.90;;;;;;5093040;28;20461;-85
2023/09/06 01:52:50;;;;;;;8.30;7.67;;;20.20;99.90;;;;;;5092822;28;20480;-85
2023/09/06 01:55:18;;;;;;;7.37;6.87;;;20.20;99.90;;;;;;5092870;28;20473;-85
2023/09/06 01:57:46;;;;;;;7.30;6.27;;;20.20;99.90;;;;;;5092526;28;20484;-85
2023/09/06 02:00:23;;;;;;;7.50;6.90;;;20.20;99.90;;;;;;5092912;28;20473;-85
2023/09/06 02:02:51;;;;;;;7.13;6.50;;;20.20;99.90;;;;;;5092649;28;20546;-85
2023/09/06 02:05:30;;;;;;;7.40;6.70;;;20.20;99.90;;;;;;5092675;28;20469;-85
2023/09/06 02:08:04;;;;;;;7.23;6.53;;;20.10;99.90;;;;;;5090662;28;20476;-85
2023/09/06 02:10:38;;;;;;;6.20;5.70;;;20.10;99.90;;;;;;5101028;28;20452;-85
2023/09/06 02:13:09;;;;;;;7.87;6.57;;;20.10;99.90;;;;;;5095806;28;20456;-85
2023/09/06 02:15:38;;;;;;;6.30;5.70;;;20.10;99.90;;;;;;5097070;28;20457;-85
2023/09/06 02:18:09;;;;;;;6.67;6.07;;;20.10;99.90;;;;;;5096025;28;21012;-85
2023/09/06 02:20:39;;;;;;;6.80;6.20;;;20.10;99.90;;;;;;5100239;28;20502;-85
2023/09/06 02:23:15;;;;;;;7.47;6.77;;;20.10;99.90;;;;;;5099448;28;20770;-85
2023/09/06 02:25:45;;;;;;;6.90;6.30;;;20.10;99.90;;;;;;5095607;28;20465;-85
2023/09/06 02:28:18;;;;;;;6.80;6.20;;;20.10;99.90;;;;;;5096185;28;20480;-84
2023/09/06 02:30:46;;;;;;;6.00;5.60;;;20.10;99.90;;;;;;5096399;28;20461;-84
2023/09/06 02:33:28;;;;;;;6.90;6.30;;;20.00;99.90;;;;;;5097050;28;20807;-84
2023/09/06 02:35:57;;;;;;;6.67;6.10;;;20.00;99.90;;;;;;5087134;28;20810;-86
2023/09/06 02:38:35;;;;;;;6.60;6.10;;;20.00;99.90;;;;;;5095444;28;20487;-86
2023/09/06 02:41:02;;;;;;;5.97;5.57;;;20.00;99.90;;;;;;5084652;28;20469;-86
2023/09/06 02:43:32;;;;;;;6.93;6.23;;;20.00;99.90;;;;;;5087486;28;20461;-86
2023/09/06 02:46:05;;;;;;;7.40;6.80;;;20.00;99.90;;;;;;5095310;28;20572;-85
2023/09/06 02:48:38;;;;;;;5.90;5.30;;;20.00;99.90;;;;;;5087037;28;20829;-85
2023/09/06 02:51:10;;;;;;;7.13;6.53;;;20.00;99.90;;;;;;5095123;28;20624;-85
2023/09/06 02:53:44;;;;;;;6.47;6.07;;;20.00;99.90;;;;;;5095891;28;20483;-85
2023/09/06 02:56:13;;;;;;;6.90;6.30;;;19.90;99.90;;;;;;5095574;28;20552;-85
2023/09/06 02:58:51;;;;;;;7.40;6.73;;;19.90;99.90;;;;;;5095834;28;20461;-85
2023/09/06 03:01:21;;;;;;;7.37;6.70;;;19.90;99.90;;;;;;5085743;28;20459;-84
2023/09/06 03:03:51;;;;;;;7.20;6.60;;;19.90;99.90;;;;;;5096175;28;20792;-85
2023/09/06 03:06:19;;;;;;;8.23;7.53;;;19.90;99.90;;;;;;5086441;28;20461;-85
2023/09/06 03:08:47;;;;;;;8.30;7.70;;;19.90;99.90;;;;;;5109275;28;20489;-84
2023/09/06 03:11:24;;;;;;;7.67;6.87;;;19.90;99.90;;;;;;5092865;28;20511;-85
2023/09/06 03:16:47;;;;;;;7.80;7.10;;;19.80;99.90;;;;;;5087826;28;20779;-86
2023/09/06 03:19:24;;;;;;;7.97;7.30;;;19.90;99.90;;;;;;5095416;28;20469;-85
2023/09/06 03:21:55;;;;;;;8.37;7.67;;;19.80;99.90;;;;;;5085361;28;20540;-86
2023/09/06 03:24:28;;;;;;;7.53;6.90;;;19.80;99.90;;;;;;5090724;28;20476;-86
2023/09/06 03:26:59;;;;;;;7.03;6.40;;;19.80;99.90;;;;;;5092832;28;20469;-85
2023/09/06 03:29:30;;;;;;;7.50;6.93;;;19.80;99.90;;;;;;5108560;28;20531;-86
2023/09/06 03:32:00;;;;;;;7.67;7.00;;;19.70;99.90;;;;;;5093024;28;20553;-86
2023/09/06 03:34:27;;;;;;;8.80;8.03;;;19.70;99.90;;;;;;5094982;28;20485;-86
2023/09/06 03:36:57;;;;;;;9.40;8.30;;;19.70;99.90;;;;;;5094204;28;20473;-85
2023/09/06 03:39:52;;;;;;;8.00;7.33;;;19.70;99.90;;;;;;5095634;28;20460;-85
2023/09/06 03:42:46;;;;;;;6.87;6.37;;;19.70;99.90;;;;;;5076523;28;20457;-86
2023/09/06 03:48:43;;;;;;;7.73;7.03;;;19.70;99.90;;;;;;5068040;28;20841;-85
2023/09/06 03:51:12;;;;;;;6.87;6.27;;;19.60;99.90;;;;;;5095279;28;20538;-86
2023/09/06 03:53:42;;;;;;;7.07;6.47;;;19.60;99.90;;;;;;5093513;28;20465;-85
2023/09/06 03:56:38;;;;;;;8.80;8.10;;;19.60;99.90;;;;;;5097394;28;20481;-85
2023/09/06 03:59:16;;;;;;;6.47;5.97;;;19.60;99.90;;;;;;5097608;28;20472;-85
2023/09/06 04:01:43;;;;;;;6.83;6.33;;;19.60;99.90;;;;;;5084147;28;20481;-85
2023/09/06 04:04:16;;;;;;;7.10;6.40;;;19.60;99.90;;;;;;5085322;28;20473;-85
2023/09/06 04:06:43;;;;;;;7.50;6.90;;;19.50;99.90;;;;;;5084384;28;20460;-85
2023/09/06 04:12:05;;;;;;;7.40;6.70;;;19.60;99.90;;;;;;5070188;28;20468;-86
2023/09/06 04:14:35;;;;;;;7.30;6.63;;;19.50;99.90;;;;;;5101346;28;20511;-85
2023/09/06 04:17:38;;;;;;;8.33;7.63;;;19.50;99.90;;;;;;5094898;28;20489;-85
2023/09/06 04:20:19;;;;;;;7.30;6.60;;;19.50;99.90;;;;;;5093953;28;20831;-85
2023/09/06 04:22:47;;;;;;;7.40;6.80;;;19.50;99.90;;;;;;5097056;28;20548;-85
2023/09/06 04:25:18;;;;;;;6.83;6.33;;;19.40;99.90;;;;;;5096611;28;20839;-85
2023/09/06 04:27:46;;;;;;;7.70;7.10;;;19.40;99.90;;;;;;5094410;28;20490;-84
2023/09/06 04:30:17;;;;;;;8.20;6.97;;;19.40;99.90;;;;;;5085751;28;20518;-84
2023/09/06 04:32:50;;;;;;;8.00;7.30;;;19.40;99.90;;;;;;5098350;28;20469;-84
2023/09/06 04:35:32;;;;;;;8.80;8.10;;;19.40;99.90;;;;;;5093808;28;20583;-84
2023/09/06 04:38:04;;;;;;;8.63;7.70;;;19.40;99.90;;;;;;5093659;28;20811;-84
2023/09/06 04:40:35;;;;;;;8.47;7.77;;;19.40;99.90;;;;;;5093700;28;21016;-85
2023/09/06 04:43:12;;;;;;;8.73;7.93;;;19.40;99.90;;;;;;5083801;28;20821;-85
2023/09/06 04:45:42;;;;;;;9.37;8.50;;;19.40;99.90;;;;;;5107560;28;20548;-84
2023/09/06 04:48:12;;;;;;;8.90;8.30;;;19.30;99.90;;;;;;5091189;28;20472;-85
2023/09/06 04:50:44;;;;;;;9.67;8.63;;;19.40;99.90;;;;;;5093512;28;20473;-84
2023/09/06 04:53:26;;;;;;;8.10;6.93;;;19.40;99.90;;;;;;5104870;28;20469;-85
2023/09/06 04:56:03;;;;;;;9.77;8.43;;;19.40;99.90;;;;;;5084976;28;20465;-85
2023/09/06 04:58:32;;;;;;;8.20;7.60;;;19.40;99.90;;;;;;5083143;28;20522;-84
2023/09/06 05:01:05;;;;;;;7.93;7.23;;;19.40;99.90;;;;;;5093428;28;20489;-85
2023/09/06 05:06:27;;;;;;;9.70;6.50;;;19.40;99.90;;;;;;5076723;28;20458;-85
2023/09/06 05:09:10;;;;;;;;;;;;;;;;;;;;;
2023/09/06 05:11:39;;;;;;;8.10;7.33;;;19.40;99.90;;;;;;5092403;28;20806;-85
2023/09/06 05:17:05;;;;;;;8.50;7.80;;;19.40;99.90;;;;;;5076570;28;20453;-85
2023/09/06 05:19:35;;;;;;;9.90;9.00;;;19.40;99.90;;;;;;5090764;28;20567;-85
2023/09/06 05:22:04;;;;;;;9.90;9.00;;;19.40;99.90;;;;;;5083075;28;21262;-84
2023/09/06 05:24:31;;;;;;;10.80;9.63;;;19.40;99.90;;;;;;5094172;28;20955;-85
2023/09/06 05:27:03;;;;;;;9.70;8.80;;;19.40;99.90;;;;;;5081527;28;20461;-84
2023/09/06 05:32:25;;;;;;;8.87;8.07;;;19.40;99.90;;;;;;5102640;28;20454;-84
2023/09/06 05:35:03;;;;;;;8.43;7.67;;;19.40;99.90;;;;;;5089593;28;20479;-85
2023/09/06 05:37:50;;;;;;;7.83;7.17;;;19.50;99.90;;;;;;5097466;28;20473;-84
2023/09/06 05:40:26;;;;;;;8.57;7.93;;;19.50;99.90;;;;;;5090726;28;20468;-84
2023/09/06 05:43:01;;;;;;;9.00;8.20;;;19.50;99.90;;;;;;5095287;28;20480;-85
2023/09/06 05:45:41;;;;;;;8.00;7.33;;;19.50;99.90;;;;;;5099530;28;20462;-85
2023/09/06 05:48:08;;;;;;;8.30;7.60;;;19.50;99.90;;;;;;5095973;28;20458;-85
2023/09/06 05:50:35;;;;;;;8.53;7.73;;;19.50;99.90;;;;;;5095995;28;20466;-86
2023/09/06 05:53:05;;;;;;;8.43;7.73;;;19.50;99.90;;;;;;5098060;28;20593;-85
2023/09/06 05:55:32;;;;;;;8.33;7.73;;;19.60;99.90;;;;;;5101301;28;20471;-86
2023/09/06 05:58:25;;;;;;;7.70;7.00;;;19.60;99.90;;;;;;5086165;28;20522;-86
2023/09/06 06:01:17;;;;;;;8.00;7.30;;;19.60;99.90;;;;;;5100999;28;20555;-85
2023/09/06 06:03:49;;;;;;;8.07;7.30;;;19.60;99.90;;;;;;5037646;28;20833;-86
2023/09/06 06:06:23;;;;;;;9.17;8.40;;;19.60;99.90;;;;;;5092335;28;20487;-86
2023/09/06 06:09:15;;;;;;;;;;;;;;;;;;;;;
2023/09/06 06:11:58;;;;;;;;;;;;;;;;;;;;;
2023/09/06 06:14:39;;;;;;;8.53;7.80;;;19.70;99.90;;;;;;5094036;28;21034;-86
2023/09/06 06:17:43;;;;;;;9.60;8.70;;;19.80;99.90;;;;;;5086442;28;20465;-85
2023/09/06 06:20:17;;;;;;;9.60;8.60;;;19.80;99.90;;;;;;5084038;28;20460;-86
2023/09/06 06:23:24;;;;;;;8.90;8.10;;;19.90;99.90;;;;;;5105341;28;20495;-85
2023/09/06 06:26:15;;;;;;;9.70;8.70;;;19.90;99.90;;;;;;5066672;28;20559;-84
2023/09/06 06:28:45;;;;;;;9.97;9.07;;;19.90;99.90;;;;;;5101933;28;20518;-85
2023/09/06 06:31:21;;;;;;;11.17;10.00;;;19.90;99.90;;;;;;5087166;28;20472;-85
2023/09/06 06:34:01;;;;;;;10.83;9.80;;;20.00;99.90;;;;;;5095543;28;20465;-85
2023/09/06 06:36:28;;;;;;;10.27;9.33;;;20.00;99.90;;;;;;5080098;28;20470;-86
2023/09/06 06:39:10;;;;;;;10.30;9.40;;;20.10;99.90;;;;;;5098658;28;20466;-86
2023/09/06 06:41:58;;;;;;;10.00;9.00;;;20.10;99.90;;;;;;5092404;28;20477;-86
2023/09/06 06:47:36;;;;;;;11.67;10.67;;;20.20;99.90;;;;;;5115453;28;20468;-85
2023/09/06 06:50:39;;;;;;;10.83;9.83;;;20.20;99.90;;;;;;5115962;28;21001;-85
2023/09/06 06:53:12;;;;;;;11.20;10.20;;;20.30;99.90;;;;;;5099175;28;20549;-84
2023/09/06 06:55:42;;;;;;;10.50;9.33;;;20.30;99.90;;;;;;5199934;22;20516;-85
2023/09/06 06:58:38;;;;;;;9.50;8.70;;;20.40;99.90;;;;;;5084272;28;20505;-84
2023/09/06 07:01:05;;;;;;;10.17;9.27;;;20.50;99.90;;;;;;5076031;28;20526;-84
2023/09/06 07:03:38;;;;;;;10.53;9.43;;;20.50;99.90;;;;;;5094463;28;20457;-84
2023/09/06 07:06:22;;;;;;;12.57;10.60;;;20.60;99.90;;;;;;5082973;28;20556;-84
2023/09/06 07:09:28;;;;;;;11.47;10.37;;;20.60;99.90;;;;;;5094067;28;20437;-84
2023/09/06 07:12:07;;;;;;;;;;;;;;;;;;;;;
2023/09/06 07:14:40;;;;;;;11.23;9.83;;;20.70;99.90;;;;;;5072532;28;20817;-85
2023/09/06 07:17:13;;;;;;;8.73;7.90;;;20.80;99.90;;;;;;5080310;28;20569;-85
2023/09/06 07:20:13;;;;;;;9.60;8.70;;;20.90;99.90;;;;;;5084083;28;20552;-84
2023/09/06 07:22:43;;;;;;;7.93;7.33;;;20.90;99.90;;;;;;5095108;28;20469;-84
2023/09/06 07:25:24;;;;;;;;;;;;;;;;;;;;;
2023/09/06 07:27:59;;;;;;;8.30;7.70;;;21.00;99.90;;;;;;5085372;28;20461;-85
2023/09/06 07:30:32;;;;;;;9.27;8.50;;;21.10;99.90;;;;;;5084381;28;20503;-85
2023/09/06 07:33:05;;;;;;;14.10;9.20;;;21.10;99.90;;;;;;5090957;28;20469;-85
2023/09/06 07:35:32;;;;;;;8.77;8.13;;;21.20;99.90;;;;;;5094910;28;20783;-86
2023/09/06 07:38:03;;;;;;;8.57;7.87;;;21.20;99.90;;;;;;5094400;28;20966;-85
2023/09/06 07:40:32;;;;;;;9.60;7.60;;;21.30;99.90;;;;;;5094454;28;20472;-86
2023/09/06 07:43:03;;;;;;;9.70;8.70;;;21.30;99.90;;;;;;5084361;28;21028;-86
2023/09/06 07:45:46;;;;;;;9.47;8.60;;;21.40;99.90;;;;;;5085552;28;20490;-85
2023/09/06 07:48:20;;;;;;;9.10;8.30;;;21.40;99.90;;;;;;5083236;28;20495;-85
2023/09/06 07:50:53;;;;;;;9.23;8.50;;;21.50;99.90;;;;;;5089935;28;20472;-85
2023/09/06 07:53:28;;;;;;;10.43;9.47;;;21.50;99.90;;;;;;5105094;28;20540;-85
2023/09/06 07:56:05;;;;;;;11.30;10.30;;;21.60;99.90;;;;;;5098004;28;20506;-85
2023/09/06 08:02:26;;;;;;;;;;;;;;;;;;;;;
2023/09/06 08:08:29;;;;;;;13.27;12.07;;;21.80;99.90;;;;;;5024999;28;20493;-85
2023/09/06 08:10:59;;;;;;;12.23;11.13;;;21.90;99.90;;;;;;5073436;28;20471;-83
2023/09/06 08:13:31;;;;;;;11.80;10.73;;;22.00;99.90;;;;;;5100793;28;20498;-84
2023/09/06 08:16:00;;;;;;;12.13;10.90;;;22.00;99.90;;;;;;5115926;28;20476;-85
2023/09/06 08:18:30;;;;;;;13.23;11.73;;;22.10;99.90;;;;;;5088646;28;20473;-85
2023/09/06 08:21:13;;;;;;;10.07;9.20;;;22.10;99.90;;;;;;5113016;28;20859;-86
2023/09/06 08:23:45;;;;;;;11.50;10.60;;;22.20;99.90;;;;;;5096670;28;20492;-86
2023/09/06 08:26:25;;;;;;;12.07;10.97;;;22.30;99.90;;;;;;5104545;28;20461;-85
2023/09/06 08:28:58;;;;;;;11.67;10.57;;;22.40;99.90;;;;;;5079126;28;20573;-85
2023/09/06 08:31:32;;;;;;;11.13;9.90;;;22.40;99.90;;;;;;5093802;28;20479;-85
2023/09/06 08:34:14;;;;;;;7.70;7.10;;;22.50;99.90;;;;;;5101407;28;20471;-85
2023/09/06 08:36:41;;;;;;;9.73;8.80;;;22.60;99.90;;;;;;5092651;28;20461;-85
2023/09/06 08:39:08;;;;;;;7.57;6.77;;;22.60;99.90;;;;;;5108523;28;20554;-85
2023/09/06 08:41:41;;;;;;;12.73;7.23;;;22.70;99.90;;;;;;5101172;28;20472;-84
2023/09/06 08:44:27;;;;;;;9.67;8.43;;;22.80;99.90;;;;;;5113872;28;20479;-85
2023/09/06 08:47:07;;;;;;;7.50;6.90;;;22.80;99.90;;;;;;5092774;28;20469;-84
2023/09/06 08:49:39;;;;;;;7.70;7.00;;;22.90;99.90;;;;;;5108188;28;20591;-85
2023/09/06 08:52:19;;;;;;;11.50;10.30;;;23.00;99.90;;;;;;5113469;28;20487;-83
2023/09/06 08:54:58;;;;;;;11.50;10.50;;;23.10;99.90;;;;;;5114108;28;20974;-85
2023/09/06 08:57:35;;;;;;;12.73;11.53;;;23.20;99.90;;;;;;5113331;28;20484;-85
2023/09/06 09:00:15;;;;;;;12.70;11.40;;;23.30;99.90;;;;;;5113615;28;20557;-85
2023/09/06 09:02:49;;;;;;;10.87;9.77;;;23.40;99.90;;;;;;5112878;28;20468;-84
2023/09/06 09:05:18;;;;;;;9.33;8.53;;;23.40;99.90;;;;;;5104491;28;20562;-85
2023/09/06 09:07:45;;;;;;;10.27;7.50;;;23.40;99.90;;;;;;5114117;28;20471;-86
2023/09/06 09:10:13;;;;;;;7.30;6.60;;;23.50;99.90;;;;;;5112745;28;20869;-85
2023/09/06 09:12:44;;;;;;;8.83;8.00;;;23.50;99.90;;;;;;5113156;28;20531;-86
2023/09/06 09:15:14;;;;;;;8.53;7.67;;;23.60;99.90;;;;;;5095165;28;20480;-85
2023/09/06 09:17:46;;;;;;;9.17;8.37;;;23.60;99.90;;;;;;5102133;28;20543;-85
2023/09/06 09:20:26;;;;;;;8.80;7.20;;;23.70;99.90;;;;;;5090034;28;20546;-86
2023/09/06 09:23:04;;;;;;;6.70;6.10;;;23.70;99.90;;;;;;5118574;28;20464;-86
2023/09/06 09:25:36;;;;;;;7.50;6.80;;;23.80;99.90;;;;;;5119330;28;20461;-86
2023/09/06 09:28:04;;;;;;;7.60;6.90;;;23.80;99.90;;;;;;5090046;28;20448;-85
2023/09/06 09:30:46;;;;;;;7.03;6.33;;;23.80;99.90;;;;;;5118714;28;20567;-85
2023/09/06 09:33:18;;;;;;;7.00;6.50;;;23.90;99.90;;;;;;5117438;28;20453;-84
2023/09/06 09:35:59;;;;;;;10.67;7.20;;;23.90;99.90;;;;;;5117422;28;20461;-86
2023/09/06 09:38:28;;;;;;;7.33;6.80;;;23.90;99.90;;;;;;5110813;28;20479;-84
2023/09/06 09:44:33;;;;;;;7.00;6.40;;;24.10;99.90;;;;;;5108222;28;20524;-85
2023/09/06 09:50:14;;;;;;;5.90;5.40;;;24.30;99.90;;;;;;5104100;28;20452;-83
2023/09/06 09:53:27;;;;;;;7.20;6.50;;;24.40;99.90;;;;;;5108061;28;20456;-87
2023/09/06 09:56:02;;;;;;;7.67;7.07;;;24.50;99.90;;;;;;5039190;28;20867;-86
2023/09/06 09:58:35;;;;;;;8.30;7.60;;;24.50;99.90;;;;;;5053148;28;20544;-86
2023/09/06 10:01:23;;;;;;;7.80;6.20;;;24.60;99.90;;;;;;5111151;28;20499;-85
2023/09/06 10:06:40;;;;;;;8.50;5.50;;;24.70;99.90;;;;;;5088130;28;20461;-84
2023/09/06 10:09:12;;;;;;;7.60;5.30;;;24.80;99.90;;;;;;5111501;28;20464;-85
2023/09/06 10:11:42;;;;;;;6.17;5.57;;;24.80;99.90;;;;;;5119710;28;20555;-85
2023/09/06 10:14:12;;;;;;;7.43;6.83;;;24.90;99.90;;;;;;5122843;28;20476;-83
2023/09/06 10:16:42;;;;;;;7.33;6.67;;;25.00;99.90;;;;;;5119515;28;20522;-84
2023/09/06 10:19:11;;;;;;;7.20;6.50;;;25.10;99.90;;;;;;5122517;28;20528;-85
2023/09/06 10:21:55;;;;;;;7.77;6.10;;;25.10;99.90;;;;;;5121696;28;20511;-85
2023/09/06 10:24:24;;;;;;;7.23;6.63;;;25.10;99.90;;;;;;5125641;28;20472;-84
2023/09/06 10:26:55;;;;;;;7.13;6.53;;;25.20;99.90;;;;;;5119239;28;20452;-85
2023/09/06 10:29:32;;;;;;;10.60;9.60;;;25.20;99.90;;;;;;5102594;28;20849;-85
2023/09/06 10:32:07;;;;;;;8.97;8.03;;;25.20;99.90;;;;;;5111336;28;20460;-85
2023/09/06 10:34:36;;;;;;;10.00;9.10;;;25.20;99.90;;;;;;5119003;28;20464;-85
2023/09/06 10:37:11;;;;;;;9.13;8.33;;;25.20;99.90;;;;;;5118037;28;20475;-85
2023/09/06 10:39:54;;;;;;;10.50;9.57;;;25.20;99.90;;;;;;5100947;28;20499;-85
2023/09/06 10:42:56;;;;;;;11.03;10.13;;;25.20;99.90;;;;;;5114906;28;20931;-85
2023/09/06 10:45:35;;;;;;;13.20;12.00;;;25.10;99.90;;;;;;5123643;28;20500;-85
2023/09/06 10:48:13;;;;;;;15.27;13.87;;;25.10;99.90;;;;;;5129599;28;20465;-85
2023/09/06 10:50:42;;;;;;;17.13;15.67;;;25.00;99.90;;;;;;5114537;28;20473;-85
2023/09/06 10:53:34;;;;;;;22.57;20.30;;;24.90;99.90;;;;;;5113620;28;20461;-84
2023/09/06 10:56:24;;;;;;;15.50;14.00;;;24.90;99.90;;;;;;5129925;28;20507;-84
2023/09/06 10:58:57;;;;;;;23.70;21.40;;;24.90;99.90;;;;;;5116736;28;20476;-85
2023/09/06 11:01:24;;;;;;;8.90;8.00;;;24.90;99.90;;;;;;5116180;28;20448;-85
2023/09/06 11:03:53;;;;;;;31.27;28.17;;;24.90;99.90;;;;;;5115739;28;20464;-84
2023/09/06 11:06:24;;;;;;;22.90;20.50;;;24.90;99.90;;;;;;5116047;28;20461;-85
2023/09/06 11:08:51;;;;;;;34.20;31.00;;;24.90;99.90;;;;;;5115767;28;21021;-84
2023/09/06 11:11:21;;;;;;;47.43;42.77;;;25.00;99.90;;;;;;5116741;28;20471;-85
2023/09/06 11:14:07;;;;;;;27.53;24.73;;;25.00;99.90;;;;;;5087849;28;20530;-85
2023/09/06 11:16:35;;;;;;;18.00;16.20;;;25.00;99.90;;;;;;5090131;28;20561;-85
2023/09/06 11:19:03;;;;;;;27.10;24.60;;;25.00;99.90;;;;;;5108017;28;20445;-85
2023/09/06 11:22:08;;;;;;;25.83;23.37;;;25.00;99.90;;;;;;5107202;28;20456;-84
2023/09/06 11:24:39;;;;;;;26.43;23.60;;;25.10;99.90;;;;;;5094733;28;20477;-85
2023/09/06 11:27:21;;;;;;;27.90;25.10;;;25.10;99.90;;;;;;5075301;28;20493;-85
2023/09/06 11:29:59;;;;;;;15.17;13.73;;;25.20;99.90;;;;;;5084253;28;20472;-83
2023/09/06 11:32:35;;;;;;;25.27;23.00;;;25.20;99.90;;;;;;5100991;28;20483;-84
2023/09/06 11:35:03;;;;;;;10.40;9.60;;;25.20;99.90;;;;;;5088868;28;20830;-85
2023/09/06 11:37:32;;;;;;;37.47;33.73;;;25.30;99.90;;;;;;5112152;28;20468;-85
2023/09/06 11:40:00;;;;;;;34.87;31.67;;;25.30;99.90;;;;;;5115173;28;20548;-85
2023/09/06 11:42:31;;;;;;;12.03;7.90;;;25.40;99.90;;;;;;5114998;28;20464;-85
2023/09/06 11:45:00;;;;;;;12.67;11.57;;;25.30;99.90;;;;;;5116659;28;20815;-85
2023/09/06 11:50:12;;;;;;;6.33;5.83;;;25.40;99.90;;;;;;5092587;28;20491;-83
2023/09/06 11:52:45;;;;;;;30.90;27.90;;;25.50;99.90;;;;;;5091625;28;20515;-84
2023/09/06 11:55:21;;;;;;;12.63;11.37;;;25.60;99.90;;;;;;5112432;28;20961;-84
2023/09/06 11:57:52;;;;;;;16.93;15.33;;;25.60;99.90;;;;;;5115559;28;20485;-85
2023/09/06 12:03:45;;;;;;;8.40;7.60;;;25.70;99.90;;;;;;5090401;28;20465;-86
2023/09/06 12:06:12;;;;;;;18.87;17.17;;;25.80;99.50;;;;;;5114104;28;20476;-85
2023/09/06 12:08:47;;;;;;;11.70;9.00;;;25.80;99.40;;;;;;5114639;28;20460;-87
2023/09/06 12:11:21;;;;;;;28.37;25.67;;;25.80;99.20;;;;;;5114204;28;20465;-86
2023/09/06 12:13:50;;;;;;;16.90;15.30;;;25.80;99.90;;;;;;5114725;28;20535;-84
2023/09/06 12:16:23;;;;;;;20.37;18.53;;;25.80;99.90;;;;;;5114506;28;20464;-84
2023/09/06 12:18:52;;;;;;;7.47;6.87;;;25.90;99.90;;;;;;5115651;28;20498;-84
2023/09/06 12:21:32;;;;;;;11.20;10.10;;;25.90;98.60;;;;;;5114931;28;20461;-86
2023/09/06 12:24:07;;;;;;;22.43;20.33;;;26.00;98.80;;;;;;5084871;28;20480;-85
2023/09/06 12:26:50;;;;;;;6.10;5.50;;;26.00;99.40;;;;;;5101276;28;20584;-85
2023/09/06 12:29:22;;;;;;;9.57;8.57;;;26.00;97.70;;;;;;5103327;28;20791;-86
2023/09/06 12:32:09;;;;;;;;;;;;;;;;;;;;;
2023/09/06 12:34:38;;;;;;;13.03;11.83;;;26.10;97.60;;;;;;5114486;28;20471;-85
2023/09/06 12:37:11;;;;;;;14.30;13.10;;;26.30;98.10;;;;;;5114898;28;20539;-85
2023/09/06 12:39:47;;;;;;;17.60;16.00;;;26.30;98.00;;;;;;5076831;28;21056;-86
2023/09/06 12:42:25;;;;;;;20.27;18.27;;;26.30;98.40;;;;;;5086414;28;20995;-85
2023/09/06 12:45:03;;;;;;;15.07;13.60;;;26.30;98.70;;;;;;5106430;28;20469;-85
2023/09/06 12:47:39;;;;;;;11.17;10.17;;;26.30;98.50;;;;;;5104104;28;20473;-85
2023/09/06 12:53:01;;;;;;;6.10;5.50;;;26.30;98.20;;;;;;5100312;28;20444;-84
2023/09/06 12:55:34;;;;;;;5.57;5.07;;;26.30;97.50;;;;;;5114185;28;20813;-86
2023/09/06 12:58:01;;;;;;;7.77;7.17;;;26.30;97.10;;;;;;5113407;28;20947;-84
2023/09/06 13:00:28;;;;;;;15.23;13.40;;;26.40;96.60;;;;;;5114593;28;20492;-84
2023/09/06 13:03:05;;;;;;;7.17;6.50;;;26.40;97.30;;;;;;5103932;28;20793;-86
2023/09/06 13:05:32;;;;;;;11.87;10.90;;;26.50;95.70;;;;;;5113691;28;20881;-86
2023/09/06 13:08:11;;;;;;;;;;;;;;;;;;;;;
2023/09/06 13:10:43;;;;;;;8.33;7.60;;;26.50;97.00;;;;;;5095340;28;20481;-86
2023/09/06 13:16:11;;;;;;;16.23;14.73;;;26.60;95.50;;;;;;5078907;28;20483;-85
2023/09/06 13:18:41;;;;;;;15.90;14.50;;;26.60;96.70;;;;;;5113323;28;20512;-85
2023/09/06 13:21:17;;;;;;;13.47;12.37;;;26.60;97.30;;;;;;5113427;28;20531;-86
2023/09/06 13:23:48;;;;;;;13.57;12.40;;;26.60;97.30;;;;;;5115763;28;20483;-85
2023/09/06 13:26:15;;;;;;;15.63;14.43;;;26.60;96.80;;;;;;5112842;28;20465;-85
2023/09/06 13:34:16;;;;;;;12.63;11.50;;;26.40;96.70;;;;;;5070128;28;20456;-85
2023/09/06 13:36:45;;;;;;;11.40;10.40;;;26.30;97.20;;;;;;5095983;28;20473;-85
2023/09/06 13:39:19;;;;;;;18.87;17.20;;;26.30;97.70;;;;;;5104074;28;20996;-86
2023/09/06 13:41:52;;;;;;;19.90;18.20;;;26.30;98.40;;;;;;5114039;28;21038;-85
2023/09/06 13:44:25;;;;;;;15.40;14.07;;;26.20;98.70;;;;;;5112713;28;20460;-86
2023/09/06 13:46:52;;;;;;;17.03;15.53;;;26.10;99.00;;;;;;5100875;28;20461;-86
2023/09/06 13:49:21;;;;;;;14.87;13.67;;;26.10;99.50;;;;;;5113392;28;20471;-86
2023/09/06 13:51:55;;;;;;;9.00;8.20;;;26.00;99.60;;;;;;5101627;28;20468;-85
2023/09/06 13:54:22;;;;;;;9.63;8.83;;;25.90;98.00;;;;;;5098629;28;20966;-86
2023/09/06 13:56:50;;;;;;;6.20;5.70;;;25.90;98.80;;;;;;5114326;28;20466;-86
2023/09/06 13:59:19;;;;;;;8.40;7.70;;;26.00;97.50;;;;;;5114182;28;20967;-86
2023/09/06 14:01:46;;;;;;;9.33;8.53;;;26.00;98.10;;;;;;5113642;28;20991;-85
2023/09/06 14:07:00;;;;;;;9.47;8.63;;;26.00;98.90;;;;;;4755374;26;20460;-85
2023/09/06 14:09:39;;;;;;;5.87;5.17;;;26.00;97.80;;;;;;5113983;27;20543;-85
2023/09/06 14:12:15;;;;;;;10.03;8.07;;;26.00;97.60;;;;;;5104296;28;20466;-86
2023/09/06 14:14:44;;;;;;;7.30;6.47;;;26.00;98.80;;;;;;5512019;22;20440;31
2023/09/06 14:17:13;;;;;;;9.00;8.23;;;26.00;98.30;;;;;;5053767;28;20468;-86
2023/09/06 14:23:00;;;;;;;6.93;4.13;;;26.00;98.40;;;;;;5010799;28;20521;-85
2023/09/06 14:25:42;;;;;;;5.80;5.30;;;26.00;97.00;;;;;;5062323;28;20501;-85
2023/09/06 14:28:34;;;;;;;;;;;;;;;;;;;;;